createdAt,value
2019-01-05T00:00:11.645Z,2.80
2019-01-05T00:02:55.355Z,2.80
2019-01-05T00:05:43.657Z,2.80
2019-01-05T00:08:34.680Z,2.80
2019-01-05T00:11:21.443Z,2.80
2019-01-05T00:14:27.629Z,2.80
2019-01-05T00:17:22.359Z,2.80
2019-01-05T00:20:18.568Z,2.80
2019-01-05T00:23:11.768Z,2.80
2019-01-05T00:26:08.217Z,2.80
2019-01-05T00:28:55.463Z,2.90
2019-01-05T00:31:56.023Z,2.80
2019-01-05T00:34:53.520Z,2.90
2019-01-05T00:37:41.752Z,2.90
2019-01-05T00:40:33.801Z,2.80
2019-01-05T00:43:31.851Z,2.90
2019-01-05T00:46:39.318Z,2.90
2019-01-05T00:49:31.764Z,2.90
2019-01-05T00:52:35.992Z,2.90
2019-01-05T00:55:29.076Z,3.00
2019-01-05T00:58:24.728Z,2.90
2019-01-05T01:01:11.051Z,2.90
2019-01-05T01:04:05.209Z,3.00
2019-01-05T01:07:02.507Z,3.00
2019-01-05T01:10:08.944Z,2.90
2019-01-05T01:12:55.709Z,3.00
2019-01-05T01:15:42.867Z,2.90
2019-01-05T01:18:29.514Z,2.90
2019-01-05T01:21:11.373Z,3.00
2019-01-05T01:24:18.650Z,3.00
2019-01-05T01:27:09.903Z,3.00
2019-01-05T01:30:13.509Z,3.00
2019-01-05T01:33:19.977Z,2.90
2019-01-05T01:36:10.988Z,2.90
2019-01-05T01:39:08.730Z,2.90
2019-01-05T01:42:16.948Z,2.90
2019-01-05T01:45:11.583Z,2.90
2019-01-05T01:48:00.373Z,2.90
2019-01-05T01:50:51.883Z,2.90
2019-01-05T01:53:41.194Z,2.90
2019-01-05T01:56:28.549Z,2.90
2019-01-05T01:59:18.161Z,2.90
2019-01-05T02:02:06.096Z,2.90
2019-01-05T02:04:53.140Z,2.90
2019-01-05T02:07:41.572Z,2.90
2019-01-05T02:10:28.903Z,2.90
2019-01-05T02:13:21.666Z,2.90
2019-01-05T02:16:16.907Z,2.90
2019-01-05T02:19:47.676Z,2.80
2019-01-05T02:23:13.023Z,2.80
2019-01-05T02:26:39.221Z,2.80
2019-01-05T02:30:16.472Z,2.80
2019-01-05T02:33:51.355Z,2.80
2019-01-05T02:37:17.367Z,2.80
2019-01-05T02:40:35.981Z,2.80
2019-01-05T02:44:19.145Z,2.80
2019-01-05T02:48:00.453Z,2.80
2019-01-05T02:51:49.049Z,2.80
2019-01-05T02:55:16.222Z,2.80
2019-01-05T02:58:47.265Z,2.80
2019-01-05T03:02:25.735Z,2.80
2019-01-05T03:06:02.512Z,2.80
2019-01-05T03:09:29.013Z,2.80
2019-01-05T03:12:57.320Z,2.80
2019-01-05T03:16:29.231Z,2.70
2019-01-05T03:20:07.212Z,2.70
2019-01-05T03:23:16.684Z,2.70
2019-01-05T03:26:45.718Z,2.70
2019-01-05T03:30:18.663Z,2.70
2019-01-05T03:33:29.517Z,2.70
2019-01-05T03:36:45.241Z,2.70
2019-01-05T03:40:14.458Z,2.70
2019-01-05T03:43:51.275Z,2.80
2019-01-05T03:47:05.618Z,2.70
2019-01-05T03:50:25.411Z,2.70
2019-01-05T03:54:21.125Z,2.80
2019-01-05T03:57:37.620Z,2.80
2019-01-05T04:01:27.200Z,2.80
2019-01-05T04:04:54.569Z,2.70
2019-01-05T04:08:47.465Z,2.70
2019-01-05T04:12:26.227Z,2.70
2019-01-05T04:16:09.894Z,2.70
2019-01-05T04:19:37.967Z,2.70
2019-01-05T04:23:00.036Z,2.60
2019-01-05T04:26:18.423Z,2.60
2019-01-05T04:29:48.104Z,2.60
2019-01-05T04:33:06.029Z,2.60
2019-01-05T04:36:41.074Z,2.60
2019-01-05T04:40:24.048Z,2.50
2019-01-05T04:43:53.751Z,2.50
2019-01-05T04:47:31.970Z,2.40
2019-01-05T04:50:55.360Z,2.40
2019-01-05T04:54:17.640Z,2.40
2019-01-05T04:57:45.376Z,2.40
2019-01-05T05:01:17.959Z,2.30
2019-01-05T05:04:43.580Z,2.30
2019-01-05T05:08:15.747Z,2.30
2019-01-05T05:11:30.076Z,2.30
2019-01-05T05:15:15.522Z,2.20
2019-01-05T05:18:38.678Z,2.20
2019-01-05T05:22:11.218Z,2.20
2019-01-05T05:26:07.033Z,2.20
2019-01-05T05:29:42.574Z,2.10
2019-01-05T05:33:40.519Z,2.20
2019-01-05T05:37:01.953Z,2.10
2019-01-05T05:40:31.597Z,2.20
2019-01-05T05:44:04.905Z,2.20
2019-01-05T05:47:44.171Z,2.20
2019-01-05T05:51:37.059Z,2.20
2019-01-05T05:55:07.365Z,2.20
2019-01-05T05:58:29.164Z,2.20
2019-01-05T06:02:10.930Z,2.20
2019-01-05T06:05:51.201Z,2.10
2019-01-05T06:09:17.548Z,2.20
2019-01-05T06:12:41.296Z,2.10
2019-01-05T06:16:12.238Z,2.10
2019-01-05T06:19:36.974Z,2.10
2019-01-05T06:23:00.588Z,2.10
2019-01-05T06:26:19.454Z,2.10
2019-01-05T06:29:36.890Z,2.10
2019-01-05T06:32:59.331Z,2.10
2019-01-05T06:36:38.412Z,2.10
2019-01-05T06:40:16.736Z,2.10
2019-01-05T06:43:43.717Z,2.10
2019-01-05T06:47:29.329Z,2.20
2019-01-05T06:50:57.411Z,2.20
2019-01-05T06:54:30.983Z,2.10
2019-01-05T06:58:02.379Z,2.10
2019-01-05T07:01:54.667Z,2.10
2019-01-05T07:05:18.650Z,2.10
2019-01-05T07:08:50.552Z,2.10
2019-01-05T07:12:30.329Z,2.00
2019-01-05T07:16:13.007Z,2.00
2019-01-05T07:19:35.490Z,2.10
2019-01-05T07:23:40.702Z,2.10
2019-01-05T07:27:04.842Z,2.10
2019-01-05T07:30:37.863Z,2.10
2019-01-05T07:33:59.169Z,2.10
2019-01-05T07:37:34.957Z,2.10
2019-01-05T07:40:59.643Z,2.10
2019-01-05T07:44:38.477Z,2.10
2019-01-05T07:48:31.769Z,2.10
2019-01-05T07:51:54.353Z,2.10
2019-01-05T07:55:20.477Z,2.20
2019-01-05T07:58:57.480Z,2.20
2019-01-05T08:02:16.792Z,2.10
2019-01-05T08:05:30.975Z,2.20
2019-01-05T08:09:17.941Z,2.20
2019-01-05T08:13:02.799Z,2.20
2019-01-05T08:16:32.275Z,2.20
2019-01-05T08:20:01.732Z,2.10
2019-01-05T08:23:51.792Z,2.10
2019-01-05T08:28:02.366Z,2.10
2019-01-05T08:31:45.176Z,2.10
2019-01-05T08:35:32.352Z,2.10
2019-01-05T08:39:10.866Z,2.10
2019-01-05T08:43:09.570Z,2.00
2019-01-05T08:46:31.777Z,2.00
2019-01-05T08:49:52.524Z,2.10
2019-01-05T08:53:26.009Z,2.00
2019-01-05T08:57:01.696Z,2.00
2019-01-05T09:00:53.701Z,2.10
2019-01-05T09:04:37.629Z,2.00
2019-01-05T09:08:03.945Z,2.00
2019-01-05T09:11:38.439Z,2.10
2019-01-05T09:15:21.138Z,2.10
2019-01-05T09:18:37.534Z,2.10
2019-01-05T09:22:24.228Z,2.10
2019-01-05T09:26:01.181Z,2.10
2019-01-05T09:29:21.864Z,2.10
2019-01-05T09:33:20.903Z,2.20
2019-01-05T09:36:45.848Z,2.10
2019-01-05T09:40:15.521Z,2.10
2019-01-05T09:43:43.495Z,2.10
2019-01-05T09:47:19.632Z,2.10
2019-01-05T09:50:56.175Z,2.20
2019-01-05T09:54:55.399Z,2.20
2019-01-05T09:58:48.089Z,2.30
2019-01-05T10:02:13.051Z,2.30
2019-01-05T10:05:48.872Z,2.40
2019-01-05T10:09:13.521Z,2.50
2019-01-05T10:12:43.285Z,2.50
2019-01-05T10:16:03.189Z,2.50
2019-01-05T10:20:01.325Z,2.60
2019-01-05T10:23:44.975Z,2.60
2019-01-05T10:27:18.940Z,2.70
2019-01-05T10:31:00.054Z,2.70
2019-01-05T10:34:33.642Z,2.70
2019-01-05T10:38:23.298Z,2.80
2019-01-05T10:41:35.817Z,2.80
2019-01-05T10:44:47.214Z,2.90
2019-01-05T10:48:11.680Z,2.90
2019-01-05T10:51:27.362Z,2.90
2019-01-05T10:54:55.824Z,2.90
2019-01-05T10:58:25.327Z,3.00
2019-01-05T11:01:52.101Z,3.00
2019-01-05T11:05:24.891Z,3.00
2019-01-05T11:08:52.325Z,3.00
2019-01-05T11:12:17.205Z,3.00
2019-01-05T11:15:50.705Z,3.00
2019-01-05T11:19:01.412Z,3.00
2019-01-05T11:22:24.692Z,3.10
2019-01-05T11:25:35.259Z,3.10
2019-01-05T11:28:58.857Z,3.10
2019-01-05T11:32:27.900Z,3.20
2019-01-05T11:35:54.207Z,3.20
2019-01-05T11:39:30.782Z,3.30
2019-01-05T11:42:43.577Z,3.30
2019-01-05T11:46:16.902Z,3.40
2019-01-05T11:49:38.509Z,3.40
2019-01-05T11:53:13.405Z,3.40
2019-01-05T11:57:12.736Z,3.40
2019-01-05T12:00:42.132Z,3.40
2019-01-05T12:04:16.583Z,3.50
2019-01-05T12:08:15.551Z,3.50
2019-01-05T12:11:41.615Z,3.50
2019-01-05T12:15:08.054Z,3.50
2019-01-05T12:18:56.794Z,3.50
2019-01-05T12:22:24.640Z,3.50
2019-01-05T12:25:56.128Z,3.50
2019-01-05T12:29:33.499Z,3.60
2019-01-05T12:32:59.718Z,3.60
2019-01-05T12:36:26.408Z,3.60
2019-01-05T12:40:18.784Z,3.60
2019-01-05T12:43:37.663Z,3.60
2019-01-05T12:47:00.188Z,3.60
2019-01-05T12:50:27.800Z,3.60
2019-01-05T12:53:53.638Z,3.70
2019-01-05T12:57:32.363Z,3.70
2019-01-05T13:00:47.222Z,3.70
2019-01-05T13:04:05.308Z,3.80
2019-01-05T13:07:38.969Z,3.80
2019-01-05T13:11:32.365Z,3.80
2019-01-05T13:14:52.385Z,3.80
2019-01-05T13:18:28.461Z,3.90
2019-01-05T13:22:18.546Z,3.90
2019-01-05T13:26:04.810Z,4.00
2019-01-05T13:29:29.648Z,3.90
2019-01-05T13:33:00.805Z,4.00
2019-01-05T13:36:39.724Z,4.00
2019-01-05T13:40:17.525Z,4.00
2019-01-05T13:43:44.962Z,4.00
2019-01-05T13:47:05.557Z,4.10
2019-01-05T13:50:38.371Z,4.10
2019-01-05T13:53:39.910Z,4.10
2019-01-05T13:56:35.837Z,4.10
2019-01-05T13:59:22.905Z,4.10
2019-01-05T14:02:09.690Z,4.10
2019-01-05T14:04:56.713Z,4.10
2019-01-05T14:07:45.035Z,4.10
2019-01-05T14:10:33.277Z,4.10
2019-01-05T14:13:19.934Z,4.10
2019-01-05T14:16:26.248Z,4.10
2019-01-05T14:19:15.346Z,4.10
2019-01-05T14:22:15.280Z,4.20
2019-01-05T14:25:06.936Z,4.20
2019-01-05T14:28:13.878Z,4.20
2019-01-05T14:31:14.526Z,4.20
2019-01-05T14:34:18.277Z,4.20
2019-01-05T14:37:24.435Z,4.20
2019-01-05T14:40:16.717Z,4.30
2019-01-05T14:43:05.305Z,4.30
2019-01-05T14:45:59.067Z,4.30
2019-01-05T14:48:45.788Z,4.30
2019-01-05T14:51:32.974Z,4.30
2019-01-05T14:54:20.265Z,4.30
2019-01-05T14:57:26.887Z,4.30
2019-01-05T15:00:30.008Z,4.40
2019-01-05T15:03:16.698Z,4.40
2019-01-05T15:06:03.293Z,4.40
2019-01-05T15:08:51.473Z,4.40
2019-01-05T15:11:38.359Z,4.40
2019-01-05T15:14:25.177Z,4.40
2019-01-05T15:17:14.138Z,4.40
2019-01-05T15:20:20.284Z,4.50
2019-01-05T15:23:07.436Z,4.50
2019-01-05T15:25:55.728Z,4.50
2019-01-05T15:28:43.723Z,4.50
2019-01-05T15:31:26.602Z,4.50
2019-01-05T15:34:30.418Z,4.50
2019-01-05T15:37:18.918Z,4.50
2019-01-05T15:40:05.516Z,4.50
2019-01-05T15:42:59.725Z,4.50
2019-01-05T15:46:02.967Z,4.50
2019-01-05T15:48:51.280Z,4.60
2019-01-05T15:51:37.903Z,4.50
2019-01-05T15:54:23.113Z,4.60
2019-01-05T15:57:14.392Z,4.60
2019-01-05T16:00:17.639Z,4.50
2019-01-05T16:03:10.058Z,4.60
2019-01-05T16:06:13.576Z,4.50
2019-01-05T16:09:07.609Z,4.50
2019-01-05T16:11:54.477Z,4.50
2019-01-05T16:14:42.738Z,4.50
2019-01-05T16:17:28.616Z,4.50
2019-01-05T16:20:22.626Z,4.50
2019-01-05T16:23:09.241Z,4.50
2019-01-05T16:26:09.141Z,4.50
2019-01-05T16:28:57.483Z,4.50
2019-01-05T16:31:51.747Z,4.50
2019-01-05T16:34:46.128Z,4.50
2019-01-05T16:37:41.761Z,4.50
2019-01-05T16:40:38.691Z,4.50
2019-01-05T16:43:29.812Z,4.50
2019-01-05T16:46:24.706Z,4.50
2019-01-05T16:49:15.965Z,4.50
2019-01-05T16:52:10.553Z,4.50
2019-01-05T16:54:57.267Z,4.50
2019-01-05T16:57:45.802Z,4.50
2019-01-05T17:00:36.521Z,4.50
2019-01-05T17:03:39.654Z,4.50
2019-01-05T17:06:26.465Z,4.50
2019-01-05T17:09:14.820Z,4.50
2019-01-05T17:12:03.092Z,4.50
2019-01-05T17:14:51.474Z,4.50
2019-01-05T17:17:39.741Z,4.50
2019-01-05T17:20:39.996Z,4.50
2019-01-05T17:23:35.942Z,4.60
2019-01-05T17:26:22.832Z,4.60
2019-01-05T17:29:01.786Z,4.60
2019-01-05T17:31:51.506Z,4.60
2019-01-05T17:34:39.766Z,4.60
2019-01-05T17:37:26.404Z,4.60
2019-01-05T17:40:13.261Z,4.70
2019-01-05T17:42:56.912Z,4.70
2019-01-05T17:45:41.058Z,4.70
2019-01-05T17:48:28.304Z,4.60
2019-01-05T17:51:11.338Z,4.70
2019-01-05T17:54:11.909Z,4.70
2019-01-05T17:56:59.034Z,4.70
2019-01-05T17:59:56.338Z,4.70
2019-01-05T18:02:47.601Z,4.70
2019-01-05T18:05:44.620Z,4.70
2019-01-05T18:08:50.815Z,4.70
2019-01-05T18:11:39.146Z,4.70
2019-01-05T18:14:45.497Z,4.70
2019-01-05T18:17:32.343Z,4.80
2019-01-05T18:20:18.912Z,4.80
2019-01-05T18:23:05.902Z,4.80
2019-01-05T18:25:57.059Z,4.80
2019-01-05T18:28:51.333Z,4.80
2019-01-05T18:31:45.499Z,4.80
2019-01-05T18:34:32.186Z,4.80
2019-01-05T18:37:19.254Z,4.80
2019-01-05T18:40:13.143Z,4.80
2019-01-05T18:43:19.654Z,4.80
2019-01-05T18:46:06.609Z,4.90
2019-01-05T18:49:00.698Z,4.90
2019-01-05T18:52:00.836Z,4.90
2019-01-05T18:54:47.957Z,4.90
2019-01-05T18:57:45.360Z,4.90
2019-01-05T19:00:39.710Z,4.90
2019-01-05T19:03:27.933Z,4.90
2019-01-05T19:06:16.177Z,4.90
2019-01-05T19:09:04.383Z,4.90
2019-01-05T19:12:10.556Z,4.90
2019-01-05T19:15:02.052Z,4.90
2019-01-05T19:17:59.358Z,5.00
2019-01-05T19:20:46.280Z,5.00
2019-01-05T19:23:43.900Z,5.00
2019-01-05T19:26:32.203Z,5.00
2019-01-05T19:29:18.904Z,5.00
2019-01-05T19:32:07.165Z,5.00
2019-01-05T19:35:10.819Z,4.90
2019-01-05T19:37:57.761Z,5.00
2019-01-05T19:41:01.148Z,5.00
2019-01-05T19:43:47.745Z,5.00
2019-01-05T19:46:45.324Z,5.00
2019-01-05T19:49:43.028Z,5.00
2019-01-05T19:52:29.975Z,5.00
2019-01-05T19:55:21.169Z,5.00
2019-01-05T19:58:15.683Z,5.00
2019-01-05T20:01:02.432Z,5.00
2019-01-05T20:03:57.008Z,5.00
2019-01-05T20:06:43.925Z,5.00
2019-01-05T20:09:30.215Z,5.00
2019-01-05T20:12:21.539Z,5.00
2019-01-05T20:15:06.444Z,5.00
2019-01-05T20:18:09.900Z,5.00
2019-01-05T20:21:13.423Z,5.00
2019-01-05T20:24:10.566Z,5.00
2019-01-05T20:26:59.339Z,5.00
2019-01-05T20:29:47.049Z,5.00
2019-01-05T20:32:47.253Z,5.00
2019-01-05T20:35:47.761Z,5.00
2019-01-05T20:38:36.918Z,5.00
2019-01-05T20:41:23.537Z,5.00
2019-01-05T20:44:23.647Z,5.00
2019-01-05T20:47:24.779Z,5.00
2019-01-05T20:50:11.489Z,5.00
2019-01-05T20:53:14.986Z,5.10
2019-01-05T20:56:21.370Z,5.00
2019-01-05T20:59:18.263Z,5.10
2019-01-05T21:02:18.361Z,5.10
2019-01-05T21:05:04.990Z,5.10
2019-01-05T21:07:56.077Z,5.10
2019-01-05T21:10:43.044Z,5.10
2019-01-05T21:13:37.131Z,5.10
2019-01-05T21:16:25.409Z,5.00
2019-01-05T21:19:12.329Z,5.10
2019-01-05T21:21:58.947Z,5.00
2019-01-05T21:24:49.940Z,5.10
2019-01-05T21:27:36.871Z,5.10
2019-01-05T21:30:27.268Z,5.00
2019-01-05T21:33:25.537Z,5.00
2019-01-05T21:36:14.236Z,5.00
2019-01-05T21:39:11.512Z,5.00
2019-01-05T21:41:58.570Z,5.10
2019-01-05T21:44:55.920Z,5.10
2019-01-05T21:47:42.858Z,5.10
2019-01-05T21:50:46.028Z,5.10
2019-01-05T21:53:28.342Z,5.10
2019-01-05T21:56:19.385Z,5.10
2019-01-05T21:59:25.494Z,5.10
2019-01-05T22:02:25.914Z,5.10
2019-01-05T22:05:12.823Z,5.10
2019-01-05T22:08:13.106Z,5.10
2019-01-05T22:11:19.261Z,5.10
2019-01-05T22:14:06.108Z,5.10
2019-01-05T22:16:52.797Z,5.10
2019-01-05T22:19:56.182Z,5.10
2019-01-05T22:22:44.444Z,5.10
2019-01-05T22:25:32.746Z,5.10
2019-01-05T22:28:30.188Z,5.10
2019-01-05T22:31:17.036Z,5.10
2019-01-05T22:34:08.325Z,5.10
2019-01-05T22:36:54.981Z,5.00
2019-01-05T22:39:49.097Z,5.10
2019-01-05T22:42:49.664Z,5.10
2019-01-05T22:45:36.831Z,5.10
2019-01-05T22:48:28.213Z,5.10
2019-01-05T22:51:20.537Z,5.10
2019-01-05T22:54:27.701Z,5.00
2019-01-05T22:57:14.383Z,5.00
2019-01-05T23:00:01.174Z,5.00
2019-01-05T23:02:49.445Z,5.00
2019-01-05T23:05:43.429Z,5.00
2019-01-05T23:08:40.756Z,5.00
2019-01-05T23:11:27.643Z,5.10
2019-01-05T23:14:23.309Z,5.00
2019-01-05T23:17:11.550Z,5.00
2019-01-05T23:20:00.031Z,5.00
2019-01-05T23:22:59.440Z,5.00
2019-01-05T23:25:47.701Z,5.00
2019-01-05T23:28:37.072Z,5.00
2019-01-05T23:31:23.794Z,5.00
2019-01-05T23:34:15.073Z,5.00
2019-01-05T23:37:01.731Z,5.00
2019-01-05T23:39:50.056Z,5.00
2019-01-05T23:42:41.090Z,5.00
2019-01-05T23:45:32.089Z,5.00
2019-01-05T23:48:19.141Z,5.00
2019-01-05T23:51:06.178Z,5.00
2019-01-05T23:54:00.242Z,5.00
2019-01-05T23:56:52.556Z,5.00
2019-01-05T23:59:39.430Z,5.00
